Time;durP1;ratioP1;P1;durP2;ratioP2;P2;SDS_P1;SDS_P2;PMS_P1;PMS_P2;Temp;Humidity;BMP_temperature;BMP_pressure;BME280_temperature;BME280_humidity;BME280_pressure;Samples;Min_cycle;Max_cycle;Signal;HPM_P1;HPM_P2
2023/01/13 00:00:55;;;;;;;17.10;2.08;;;;;;;-146.73;100.00;56421.06;6146947;23;20144;-92
2023/01/13 00:03:21;;;;;;;11.50;1.83;;;;;;;-146.73;100.00;56421.06;6146054;23;20013;-91
2023/01/13 00:05:46;;;;;;;17.90;3.17;;;;;;;-146.73;100.00;56421.06;6119215;23;20714;-92
2023/01/13 00:08:12;;;;;;;13.23;1.92;;;;;;;-146.73;100.00;56421.06;6146722;23;20006;-92
2023/01/13 00:10:37;;;;;;;13.10;1.60;;;;;;;-146.73;100.00;56421.06;6137931;23;20017;-93
2023/01/13 00:13:04;;;;;;;11.48;2.15;;;;;;;-146.73;100.00;56421.06;6142624;23;20021;-93
2023/01/13 00:15:30;;;;;;;14.38;1.80;;;;;;;-146.73;100.00;56421.06;6145019;23;20647;-92
2023/01/13 00:17:56;;;;;;;11.10;1.88;;;;;;;-146.73;100.00;56421.06;6141884;23;20076;-93
2023/01/13 00:20:21;;;;;;;11.10;2.05;;;;;;;-146.73;100.00;56421.06;6145263;23;20001;-94
2023/01/13 00:22:46;;;;;;;9.70;1.30;;;;;;;-146.73;100.00;56421.06;6144865;23;20479;-93
2023/01/13 00:25:12;;;;;;;8.68;1.30;;;;;;;-146.73;100.00;56421.06;6149093;23;20009;-92
2023/01/13 00:27:38;;;;;;;7.25;1.38;;;;;;;-146.73;100.00;56421.06;6146497;23;20056;-93
2023/01/13 00:30:05;;;;;;;12.18;1.92;;;;;;;-146.73;100.00;56421.06;6144671;23;20020;-94
2023/01/13 00:32:30;;;;;;;18.13;1.65;;;;;;;-146.73;100.00;56421.06;6147595;23;20383;-92
2023/01/13 00:34:57;;;;;;;15.32;1.83;;;;;;;-146.73;100.00;56421.06;6147887;23;20025;-93
2023/01/13 00:37:23;;;;;;;8.95;1.58;;;;;;;-146.73;100.00;56421.06;6149294;23;20002;-94
2023/01/13 00:39:52;;;;;;;8.32;1.33;;;;;;;-146.73;100.00;56421.06;6146730;23;20035;-94
2023/01/13 00:45:03;;;;;;;11.35;2.00;;;;;;;-146.73;100.00;56421.06;6149261;23;20019;-94
2023/01/13 00:47:28;;;;;;;13.68;1.65;;;;;;;-146.73;100.00;56421.06;6149357;23;20001;-93
2023/01/13 00:49:54;;;;;;;10.60;1.85;;;;;;;-146.73;100.00;56421.06;6146992;23;20028;-93
2023/01/13 00:52:19;;;;;;;14.68;1.60;;;;;;;-146.73;100.00;56421.06;6149399;23;20368;-94
2023/01/13 00:54:45;;;;;;;13.10;1.75;;;;;;;-146.73;100.00;56421.06;6148014;23;20009;-93
2023/01/13 00:57:10;;;;;;;11.18;1.88;;;;;;;-146.73;100.00;56421.06;6148409;23;20090;-94
2023/01/13 00:59:36;;;;;;;10.75;1.50;;;;;;;-146.73;100.00;56421.06;6147326;23;20012;-93
2023/01/13 01:02:01;;;;;;;12.52;1.42;;;;;;;-146.73;100.00;56421.06;6147169;23;20009;-92
2023/01/13 01:04:27;;;;;;;12.38;1.77;;;;;;;-146.73;100.00;56421.06;6148473;23;20037;-93
2023/01/13 01:06:55;;;;;;;10.38;1.73;;;;;;;-146.73;100.00;56421.06;6148573;23;20041;-92
2023/01/13 01:09:20;;;;;;;16.40;1.80;;;;;;;-146.73;100.00;56421.06;6147822;23;20021;-93
2023/01/13 01:11:46;;;;;;;9.13;1.80;;;;;;;-146.73;100.00;56421.06;6150860;23;20789;-94
2023/01/13 01:14:13;;;;;;;10.05;1.75;;;;;;;-146.73;100.00;56421.06;6156593;23;20036;-93
2023/01/13 01:16:40;;;;;;;16.45;2.15;;;;;;;-146.73;100.00;56421.06;6164669;23;20032;-93
2023/01/13 01:19:06;;;;;;;18.02;2.55;;;;;;;-146.73;100.00;56421.06;6162335;23;20040;-93
2023/01/13 01:21:32;;;;;;;14.32;2.45;;;;;;;-146.73;100.00;56421.06;6160856;23;20009;-93
2023/01/13 01:24:01;;;;;;;12.68;2.72;;;;;;;-146.73;100.00;56421.06;6161302;23;20013;-92
2023/01/13 01:26:29;;;;;;;18.45;2.28;;;;;;;-146.73;100.00;56421.06;6157070;23;20332;-92
2023/01/13 01:28:55;;;;;;;18.08;2.35;;;;;;;-146.73;100.00;56421.06;6159781;23;20069;-93
2023/01/13 01:31:32;;;;;;;13.85;2.15;;;;;;;-146.73;100.00;56421.06;6160266;23;20395;-92
2023/01/13 01:33:58;;;;;;;12.57;2.20;;;;;;;-146.73;100.00;56421.06;6154759;23;20032;-93
2023/01/13 01:36:25;;;;;;;20.13;2.50;;;;;;;-146.73;100.00;56421.06;6148743;23;20065;-92
2023/01/13 01:38:51;;;;;;;14.30;2.38;;;;;;;-146.73;100.00;56421.06;6147414;23;20481;-93
2023/01/13 01:41:22;;;;;;;12.95;1.70;;;;;;;-146.73;100.00;56421.06;6146964;23;20025;-92
2023/01/13 01:44:05;;;;;;;19.60;2.28;;;;;;;-146.73;100.00;56421.06;6172112;23;20042;-94
2023/01/13 01:46:36;;;;;;;17.65;2.33;;;;;;;-146.73;100.00;56421.06;6146905;23;20009;-93
2023/01/13 01:49:23;;;;;;;12.82;2.33;;;;;;;-146.73;100.00;56421.06;6148940;23;20048;-93
2023/01/13 01:51:54;;;;;;;19.05;2.00;;;;;;;-146.73;100.00;56421.06;6144728;23;20017;-93
2023/01/13 01:54:27;;;;;;;12.27;1.98;;;;;;;-146.73;100.00;56421.06;6144995;23;20006;-92
2023/01/13 01:56:53;;;;;;;17.50;2.55;;;;;;;-146.73;100.00;56421.06;6143722;23;20041;-91
2023/01/13 01:59:19;;;;;;;14.88;2.10;;;;;;;-146.73;100.00;56421.06;6145401;23;20020;-92
2023/01/13 02:01:45;;;;;;;18.58;2.45;;;;;;;-146.73;100.00;56421.06;6145426;23;20010;-92
2023/01/13 02:04:16;;;;;;;17.60;2.13;;;;;;;-146.73;100.00;56421.06;6147302;23;20009;-92
2023/01/13 02:06:43;;;;;;;15.40;2.17;;;;;;;-146.73;100.00;56421.06;6147879;23;20036;-93
2023/01/13 02:09:09;;;;;;;14.38;1.90;;;;;;;-146.73;100.00;56421.06;6150064;23;20006;-92
2023/01/13 02:14:22;;;;;;;15.07;2.47;;;;;;;-146.73;100.00;56421.06;6176706;23;20040;-93
2023/01/13 02:17:09;;;;;;;16.58;2.22;;;;;;;-146.73;100.00;56421.06;6154305;23;20020;-92
2023/01/13 02:19:53;;;;;;;11.50;2.05;;;;;;;-146.73;100.00;56421.06;6178755;23;20072;-92
2023/01/13 02:22:39;;;;;;;18.13;2.65;;;;;;;-146.73;100.00;56421.06;6151392;23;20048;-93
2023/01/13 02:25:33;;;;;;;14.52;1.73;;;;;;;-146.73;100.00;56421.06;6152620;23;20075;-92
2023/01/13 02:28:04;;;;;;;17.33;3.05;;;;;;;-146.73;100.00;56421.06;6150823;23;20013;-92
2023/01/13 02:34:08;;;;;;;17.27;2.38;;;;;;;-146.73;100.00;56421.06;6177737;23;20032;-95
2023/01/13 02:36:54;;;;;;;16.08;1.80;;;;;;;-146.73;100.00;56421.06;6178451;23;20040;-93
2023/01/13 02:39:25;;;;;;;14.88;2.05;;;;;;;-146.73;100.00;56421.06;6152190;23;20091;-93
2023/01/13 02:45:14;;;;;;;14.95;2.22;;;;;;;-146.73;100.00;56421.06;6179977;23;20056;-93
2023/01/13 02:47:46;;;;;;;12.05;1.80;;;;;;;-146.73;100.00;56421.06;6180267;23;20087;-92
2023/01/13 02:50:16;;;;;;;14.77;2.72;;;;;;;-146.73;100.00;56421.06;6153995;23;20009;-92
2023/01/13 02:53:04;;;;;;;16.08;2.35;;;;;;;-146.73;100.00;56421.06;6179324;23;20083;-93
2023/01/13 02:55:37;;;;;;;12.88;2.45;;;;;;;-146.73;100.00;56421.06;6152010;23;20021;-93
2023/01/13 02:58:07;;;;;;;11.65;1.80;;;;;;;-146.73;100.00;56421.06;6149700;23;20013;-92
2023/01/13 03:06:42;;;;;;;11.82;2.05;;;;;;;-146.73;100.00;56421.06;6147501;23;20029;-95
2023/01/13 03:09:30;;;;;;;14.50;1.63;;;;;;;-146.73;100.00;56421.06;6122554;23;20354;-92
2023/01/13 03:12:16;;;;;;;11.23;2.53;;;;;;;-146.73;100.00;56421.06;6149082;23;20020;-91
2023/01/13 03:14:55;;;;;;;16.38;2.67;;;;;;;-146.73;100.00;56421.06;6123286;23;20561;-91
2023/01/13 03:17:38;;;;;;;15.05;3.15;;;;;;;-146.73;100.00;56421.06;6122093;23;20013;-92
2023/01/13 03:20:13;;;;;;;17.73;2.38;;;;;;;-146.73;100.00;56421.06;6122470;23;20009;-93
2023/01/13 03:22:50;;;;;;;14.93;2.20;;;;;;;-146.73;100.00;56421.06;6122919;23;20439;-92
2023/01/13 03:25:30;;;;;;;14.80;2.38;;;;;;;-146.73;100.00;56421.06;6149259;23;20040;-91
2023/01/13 03:28:09;;;;;;;12.98;2.42;;;;;;;-146.73;100.00;56421.06;6149974;23;20019;-92
2023/01/13 03:30:43;;;;;;;14.95;2.60;;;;;;;-146.73;100.00;56421.06;6121711;23;20037;-92
2023/01/13 03:33:20;;;;;;;14.57;2.03;;;;;;;-146.73;100.00;56421.06;6123318;23;20443;-92
2023/01/13 03:35:50;;;;;;;11.90;2.22;;;;;;;-146.73;100.00;56421.06;6123156;23;20040;-92
2023/01/13 03:38:18;;;;;;;20.45;2.63;;;;;;;-146.73;100.00;56421.06;6148761;23;20002;-91
2023/01/13 03:41:06;;;;;;;11.77;2.10;;;;;;;-146.73;100.00;56421.06;6122301;23;20013;-92
2023/01/13 03:46:49;;;;;;;12.65;2.47;;;;;;;-146.73;100.00;56421.06;6149620;23;20039;-91
2023/01/13 03:49:23;;;;;;;12.57;2.40;;;;;;;-146.73;100.00;56421.06;6123293;23;20061;-92
2023/01/13 03:51:54;;;;;;;;;;;;;;;-146.73;100.00;56421.06;6122934;23;20009;-91
2023/01/13 03:54:24;;;;;;;11.82;2.25;;;;;;;-146.73;100.00;56421.06;6123540;23;19966;-91
2023/01/13 03:57:05;;;;;;;15.50;2.80;;;;;;;-146.73;100.00;56421.06;6124646;23;20009;-91
2023/01/13 03:59:38;;;;;;;14.82;2.80;;;;;;;-146.73;100.00;56421.06;6123123;23;20021;-93
2023/01/13 04:02:10;;;;;;;;;;;;;;;-146.73;100.00;56421.06;6123853;23;20005;-91
2023/01/13 04:04:43;;;;;;;10.98;2.20;;;;;;;-146.73;100.00;56421.06;6123077;23;19924;-93
2023/01/13 04:07:27;;;;;;;11.63;2.15;;;;;;;-146.73;100.00;56421.06;6150668;23;20013;-91
2023/01/13 04:10:00;;;;;;;14.65;3.15;;;;;;;-146.73;100.00;56421.06;6124662;23;20010;-91
2023/01/13 04:12:59;;;;;;;12.68;2.50;;;;;;;-146.73;100.00;56421.06;6122532;23;20118;-92
2023/01/13 04:15:20;;;;;;;9.38;1.95;;;;;;;-146.73;100.00;56421.06;6149809;23;20021;-91
2023/01/13 04:17:46;;;;;;;11.63;2.50;;;;;;;-146.73;100.00;56421.06;6122873;23;20005;-92
2023/01/13 04:20:12;;;;;;;9.13;2.42;;;;;;;-146.73;100.00;56421.06;6124393;23;20012;-92
2023/01/13 04:22:37;;;;;;;12.10;2.15;;;;;;;-146.73;100.00;56421.06;6122939;23;20017;-92
2023/01/13 04:25:04;;;;;;;12.52;2.25;;;;;;;-146.73;100.00;56421.06;6125560;23;20455;-91
2023/01/13 04:27:29;;;;;;;15.68;2.03;;;;;;;-146.73;100.00;56421.06;6124675;23;20017;-90
2023/01/13 04:29:55;;;;;;;12.95;2.85;;;;;;;-146.73;100.00;56421.06;6154691;23;20356;-92
2023/01/13 04:32:20;;;;;;;13.18;2.03;;;;;;;-146.73;100.00;56421.06;6152131;23;20006;-92
2023/01/13 04:34:46;;;;;;;10.52;1.75;;;;;;;-146.73;100.00;56421.06;6127241;23;20390;-92
2023/01/13 04:37:15;;;;;;;8.82;1.73;;;;;;;-146.73;100.00;56421.06;6159486;23;20001;-93
2023/01/13 04:39:40;;;;;;;7.38;1.70;;;;;;;-146.73;100.00;56421.06;6138197;23;20001;-94
2023/01/13 04:42:12;;;;;;;9.18;1.48;;;;;;;-146.73;100.00;56421.06;6138417;23;20443;-94
2023/01/13 04:44:42;;;;;;;11.73;2.08;;;;;;;-146.73;100.00;56421.06;6140495;23;20048;-95
2023/01/13 04:47:13;;;;;;;14.57;2.28;;;;;;;-146.73;100.00;56421.06;6144341;23;20013;-94
2023/01/13 04:49:50;;;;;;;11.35;2.13;;;;;;;-146.73;100.00;56421.06;6144292;23;19990;-95
2023/01/13 04:52:15;;;;;;;14.30;2.20;;;;;;;-146.73;100.00;56421.06;6147275;23;20061;-96
2023/01/13 05:10:06;;;;;;;12.82;1.67;;;;;;;-146.73;100.00;56421.06;6169327;23;20112;-95
2023/01/13 05:19:51;;;;;;;11.18;1.73;;;;;;;-146.73;100.00;56421.06;6166018;23;20024;-96
2023/01/13 05:26:22;;;;;;;10.23;1.70;;;;;;;-146.73;100.00;56421.06;6157065;23;20132;-95
2023/01/13 05:28:48;;;;;;;10.68;1.52;;;;;;;-146.73;100.00;56421.06;5948251;24;20580;-96
2023/01/13 05:31:43;;;;;;;11.35;1.58;;;;;;;-146.73;100.00;56421.06;5929634;24;20036;-96
2023/01/13 05:34:12;;;;;;;10.57;1.40;;;;;;;-146.73;100.00;56421.06;5905678;24;20040;-92
2023/01/13 05:37:09;;;;;;;;;;;;;;;;;;;;;
2023/01/13 05:45:53;;;;;;;;;;;;;;;;;;;;;
2023/01/13 05:49:00;;;;;;;10.95;1.60;;;;;;;-146.73;100.00;56421.06;5944493;24;20191;-94
2023/01/13 05:51:34;;;;;;;7.80;1.30;;;;;;;-146.73;100.00;56421.06;5940840;24;20390;-93
2023/01/13 05:54:06;;;;;;;8.48;1.50;;;;;;;-146.73;100.00;56421.06;5922260;24;20043;-94
2023/01/13 05:56:41;;;;;;;7.15;1.30;;;;;;;-146.73;100.00;56421.06;5924578;24;20013;-93
2023/01/13 05:59:13;;;;;;;8.38;1.27;;;;;;;-146.73;100.00;56421.06;5936905;23;20015;-94
2023/01/13 06:01:57;;;;;;;10.40;1.98;;;;;;;-146.73;100.00;56421.06;6012114;23;20040;-93
2023/01/13 06:04:25;;;;;;;9.05;1.08;;;;;;;-146.73;100.00;56421.06;6150524;23;20017;-93
2023/01/13 06:06:55;;;;;;;9.75;1.38;;;;;;;-146.73;100.00;56421.06;6125126;23;20001;-93
2023/01/13 06:09:48;;;;;;;10.30;1.27;;;;;;;-146.73;100.00;56421.06;6125660;23;20009;-94
2023/01/13 06:12:22;;;;;;;9.85;1.27;;;;;;;-146.73;100.00;56421.06;6151076;23;20100;-93
2023/01/13 06:14:48;;;;;;;9.20;1.55;;;;;;;-146.73;100.00;56421.06;6124726;23;20006;-93
2023/01/13 06:17:24;;;;;;;7.47;1.52;;;;;;;-146.73;100.00;56421.06;6123827;23;20009;-94
2023/01/13 06:19:51;;;;;;;10.50;1.50;;;;;;;-146.73;100.00;56421.06;6125949;23;20001;-95
2023/01/13 06:22:29;;;;;;;9.80;1.60;;;;;;;-146.73;100.00;56421.06;6123890;23;20085;-93
2023/01/13 06:25:16;;;;;;;11.27;1.80;;;;;;;-146.73;100.00;56421.06;6125676;23;20009;-93
2023/01/13 06:27:42;;;;;;;9.05;1.23;;;;;;;-146.73;100.00;56421.06;6126605;23;20013;-92
2023/01/13 06:30:11;;;;;;;16.70;1.98;;;;;;;-146.73;100.00;56421.06;6127395;23;20049;-92
2023/01/13 06:32:51;;;;;;;8.88;1.33;;;;;;;-146.73;100.00;56421.06;6126769;23;20023;-92
2023/01/13 06:36:00;;;;;;;;;;;;;;;;;;;;;
2023/01/13 07:04:28;;;;;;;17.25;1.80;;;;;;;-146.73;100.00;56421.06;5921370;24;20073;-93
2023/01/13 07:25:26;;;;;;;20.98;2.42;;;;;;;-146.73;100.00;56421.06;5815613;24;20017;-94
2023/01/13 07:31:04;;;;;;;8.10;1.80;;;;;;;-146.73;100.00;56421.06;5869531;24;20049;-92
2023/01/13 07:33:33;;;;;;;14.00;1.80;;;;;;;-146.73;100.00;56421.06;5869334;24;20014;-93
2023/01/13 07:36:06;;;;;;;10.68;1.83;;;;;;;-146.73;100.00;56421.06;5864504;24;20089;-94
2023/01/13 07:38:45;;;;;;;8.88;1.13;;;;;;;-146.73;100.00;56421.06;5821662;24;20045;-95
2023/01/13 07:44:09;;;;;;;9.27;1.60;;;;;;;-146.73;100.00;56421.06;5841676;24;20162;-92
2023/01/13 07:46:40;;;;;;;11.75;1.55;;;;;;;-146.73;100.00;56421.06;5815004;24;20014;-93
2023/01/13 07:49:19;;;;;;;;;;;;;;;;;;;;;
2023/01/13 07:51:59;;;;;;;8.25;1.17;;;;;;;-146.73;100.00;56421.06;5863034;24;20085;-96
2023/01/13 07:54:28;;;;;;;14.70;2.03;;;;;;;-146.73;100.00;56421.06;5915722;24;20012;-93
2023/01/13 07:57:03;;;;;;;13.00;1.75;;;;;;;-146.73;100.00;56421.06;5950591;24;20015;-95
2023/01/13 08:02:41;;;;;;;14.75;2.25;;;;;;;-146.73;100.00;56421.06;6064767;23;20018;-96
2023/01/13 08:05:24;;;;;;;11.02;1.30;;;;;;;-146.73;100.00;56421.06;6110857;23;20020;-94
2023/01/13 08:07:53;;;;;;;13.55;1.85;;;;;;;-146.73;100.00;56421.06;6129580;23;20022;-93
2023/01/13 08:10:34;;;;;;;12.77;1.92;;;;;;;-146.73;100.00;56421.06;6128704;23;20431;-92
2023/01/13 08:13:20;;;;;;;8.20;1.60;;;;;;;-146.73;100.00;56421.06;6127932;23;20067;-95
2023/01/13 08:16:07;;;;;;;11.15;1.75;;;;;;;-146.73;100.00;56421.06;6122110;23;20096;-91
2023/01/13 08:22:29;;;;;;;;;;;;;;;;;;;;;
2023/01/13 08:25:36;;;;;;;11.30;1.40;;;;;;;-146.73;100.00;56421.06;6139611;23;20013;-90
2023/01/13 08:28:07;;;;;;;9.93;1.40;;;;;;;-146.73;100.00;56421.06;6115790;23;20013;-89
2023/01/13 08:30:36;;;;;;;12.27;1.83;;;;;;;-146.73;100.00;56421.06;6142077;23;20020;-92
2023/01/13 08:43:45;;;;;;;5.63;1.33;;;;;;;-146.73;100.00;56421.06;6054478;23;20070;-88
2023/01/13 08:54:37;;;;;;;13.00;2.10;;;;;;;-146.73;100.00;56421.06;6053077;23;20035;-88
2023/01/13 09:00:18;;;;;;;7.85;1.20;;;;;;;-146.73;100.00;56421.06;6051653;23;20017;-89
2023/01/13 09:03:23;;;;;;;10.20;1.50;;;;;;;-146.73;100.00;56421.06;6054843;23;20021;-90
2023/01/13 09:17:06;;;;;;;11.70;2.03;;;;;;;-146.73;100.00;56421.06;6043010;23;20141;-90
2023/01/13 09:20:07;;;;;;;;;;;;;;;-146.73;100.00;56421.06;6115830;23;20088;-93
2023/01/13 09:26:28;;;;;;;15.75;1.70;;;;;;;-146.73;100.00;56421.06;6038768;23;20551;-91
2023/01/13 09:49:38;;;;;;;6.07;1.10;;;;;;;-146.73;100.00;56421.06;6149114;23;20036;-91
2023/01/13 09:52:24;;;;;;;8.60;1.58;;;;;;;-146.73;100.00;56421.06;6121189;23;20013;-93
2023/01/13 09:55:11;;;;;;;8.25;1.10;;;;;;;-146.73;100.00;56421.06;6148771;23;20004;-93
2023/01/13 09:57:40;;;;;;;9.02;1.30;;;;;;;-146.73;100.00;56421.06;6120847;23;20048;-93
2023/01/13 10:00:13;;;;;;;8.35;1.13;;;;;;;-146.73;100.00;56421.06;6121180;23;19997;-92
2023/01/13 10:02:45;;;;;;;9.63;1.48;;;;;;;-146.73;100.00;56421.06;6148326;23;20020;-91
2023/01/13 10:05:26;;;;;;;7.78;1.40;;;;;;;-146.73;100.00;56421.06;6121324;23;20010;-92
2023/01/13 10:08:08;;;;;;;9.32;1.38;;;;;;;-146.73;100.00;56421.06;6121430;23;20030;-92
2023/01/13 10:10:58;;;;;;;10.05;1.77;;;;;;;-146.73;100.00;56421.06;6121450;23;20016;-93
2023/01/13 10:13:47;;;;;;;;;;;;;;;;;;;;;
2023/01/13 10:16:25;;;;;;;10.48;1.30;;;;;;;-146.73;100.00;56421.06;6126631;23;20073;-92
2023/01/13 10:19:49;;;;;;;9.55;1.30;;;;;;;-146.73;100.00;56421.06;6120643;23;20071;-93
2023/01/13 10:22:44;;;;;;;6.93;1.33;;;;;;;-146.73;100.00;56421.06;5954743;23;20022;-93
2023/01/13 10:25:20;;;;;;;11.80;1.85;;;;;;;-146.73;100.00;56421.06;6028954;23;20019;-93
2023/01/13 10:27:55;;;;;;;9.15;1.30;;;;;;;-146.73;100.00;56421.06;6029766;23;20011;-94
2023/01/13 10:30:39;;;;;;;17.90;1.60;;;;;;;-146.73;100.00;56421.06;6099963;23;20006;-93
2023/01/13 10:33:16;;;;;;;;;;;;;;;-146.73;100.00;56421.06;6148317;23;20501;-93
2023/01/13 10:36:05;;;;;;;8.35;1.45;;;;;;;-146.73;100.00;56421.06;6126524;23;19995;-93
2023/01/13 10:45:40;;;;;;;5.53;0.98;;;;;;;-146.73;100.00;56421.06;6153233;23;20028;-94
2023/01/13 10:48:15;;;;;;;5.15;0.95;;;;;;;-146.73;100.00;56421.06;6105522;23;20017;-92
2023/01/13 10:50:41;;;;;;;6.40;1.48;;;;;;;-146.73;100.00;56421.06;6125572;23;20012;-93
2023/01/13 10:54:05;;;;;;;10.13;1.20;;;;;;;-146.73;100.00;56421.06;6127167;23;20020;-95
2023/01/13 10:57:28;;;;;;;5.97;1.15;;;;;;;-146.73;100.00;56421.06;6127577;23;20036;-94
2023/01/13 11:00:05;;;;;;;8.18;1.42;;;;;;;-146.73;100.00;56421.06;6033136;23;20007;-94
2023/01/13 11:03:00;;;;;;;8.77;1.40;;;;;;;-146.73;100.00;56421.06;6006359;23;20043;-94
2023/01/13 11:05:39;;;;;;;14.02;1.77;;;;;;;-146.73;100.00;56421.06;6010944;23;20095;-94
2023/01/13 11:08:32;;;;;;;10.60;1.35;;;;;;;-146.73;100.00;56421.06;6011499;23;20046;-93
2023/01/13 11:11:46;;;;;;;10.68;1.25;;;;;;;-146.73;100.00;56421.06;6035246;23;20454;-93
2023/01/13 11:14:41;;;;;;;9.40;1.30;;;;;;;-146.73;100.00;56421.06;6034967;23;20087;-93
2023/01/13 11:17:58;;;;;;;9.30;1.38;;;;;;;-146.73;100.00;56421.06;6034493;23;20015;-94
2023/01/13 11:21:31;;;;;;;;;;;;;;;;;;;;;
2023/01/13 11:24:17;;;;;;;7.82;1.15;;;;;;;-146.73;100.00;56421.06;5976386;23;20087;-93
2023/01/13 11:28:06;;;;;;;12.70;1.27;;;;;;;-146.73;100.00;56421.06;5976271;23;20039;-94
2023/01/13 11:31:20;;;;;;;8.98;1.25;;;;;;;-146.73;100.00;56421.06;5992557;23;20030;-95
2023/01/13 11:38:11;;;;;;;9.27;1.00;;;;;;;-146.73;100.00;56421.06;5950160;24;20210;-95
2023/01/13 11:45:17;;;;;;;6.80;1.20;;;;;;;-146.73;100.00;56421.06;5918848;24;20020;-93
2023/01/13 11:48:06;;;;;;;11.18;1.33;;;;;;;-146.73;100.00;56421.06;5922012;24;20440;-93
2023/01/13 11:50:54;;;;;;;10.45;1.60;;;;;;;-146.73;100.00;56421.06;5924987;24;20021;-93
2023/01/13 11:53:51;;;;;;;8.68;0.95;;;;;;;-146.73;100.00;56421.06;5924227;24;20019;-93
2023/01/13 11:56:54;;;;;;;4.82;0.75;;;;;;;-146.73;100.00;56421.06;5947255;24;20076;-93
2023/01/13 11:59:57;;;;;;;5.25;0.93;;;;;;;-146.73;100.00;56421.06;5948390;24;20017;-94
2023/01/13 12:02:23;;;;;;;3.75;1.00;;;;;;;-146.73;100.00;56421.06;6062126;23;20007;-93
2023/01/13 12:05:11;;;;;;;4.90;0.73;;;;;;;-146.73;100.00;56421.06;6061490;23;20021;-93
2023/01/13 12:08:25;;;;;;;6.60;0.95;;;;;;;-146.73;100.00;56421.06;6062266;23;20011;-93
2023/01/13 12:11:17;;;;;;;5.03;1.13;;;;;;;-146.73;100.00;56421.06;5925143;24;20046;-95
2023/01/13 12:14:22;;;;;;;9.65;1.10;;;;;;;-146.73;100.00;56421.06;5948017;24;20027;-94
2023/01/13 12:16:51;;;;;;;8.65;1.05;;;;;;;-146.73;100.00;56421.06;5948792;24;20064;-93
2023/01/13 12:19:51;;;;;;;7.15;1.40;;;;;;;-146.73;100.00;56421.06;5986649;23;20055;-95
2023/01/13 12:22:35;;;;;;;10.05;1.25;;;;;;;;;;6006646;23;20018;-95
2023/01/13 12:25:26;;;;;;;5.82;1.17;;;;;;;-146.73;100.00;56421.06;6031924;23;20040;-94
2023/01/13 12:27:51;;;;;;;9.20;1.35;;;;;;;;;;6031454;23;20023;-93
2023/01/13 12:30:57;;;;;;;9.80;1.15;;;;;;;-146.73;100.00;56421.06;6031899;23;20022;-94
2023/01/13 12:33:43;;;;;;;8.20;1.38;;;;;;;-146.73;100.00;56421.06;6029270;23;20011;-90
2023/01/13 12:36:28;;;;;;;5.72;1.23;;;;;;;-146.73;100.00;56421.06;6032137;23;20098;-91
2023/01/13 12:39:06;;;;;;;12.82;1.75;;;;;;;-146.73;100.00;56421.06;6007607;23;20011;-96
2023/01/13 12:44:54;;;;;;;7.13;1.50;;;;;;;-146.73;100.00;56421.06;6030156;23;20124;-94
2023/01/13 12:47:44;;;;;;;6.65;1.10;;;;;;;-146.73;100.00;56421.06;6146651;23;20025;-93
2023/01/13 12:53:38;;;;;;;5.30;1.00;;;;;;;-146.73;100.00;56421.06;6104517;23;20718;-92
2023/01/13 13:00:06;;;;;;;7.82;1.38;;;;;;;-146.73;100.00;56421.06;6151565;23;20032;-96
2023/01/13 13:02:53;;;;;;;10.27;1.67;;;;;;;-146.73;100.00;56421.06;6124711;23;20013;-95
2023/01/13 13:05:24;;;;;;;6.32;1.00;;;;;;;-146.73;100.00;56421.06;6125381;23;20032;-95
2023/01/13 13:08:31;;;;;;;7.15;1.10;;;;;;;-146.73;100.00;56421.06;6126458;23;20431;-94
2023/01/13 13:13:16;;;;;;;8.45;1.42;;;;;;;-146.73;100.00;56421.06;6098724;23;20060;-95
2023/01/13 13:14:14;;;;;;;10.60;1.50;;;;;;;-146.73;100.00;56421.06;6152094;23;20023;-95
2023/01/13 13:16:50;;;;;;;10.98;1.50;;;;;;;-146.73;100.00;56421.06;6127176;23;20020;-95
2023/01/13 13:19:19;;;;;;;10.10;1.58;;;;;;;-146.73;100.00;56421.06;6126396;23;20104;-93
2023/01/13 13:22:06;;;;;;;11.48;1.80;;;;;;;-146.73;100.00;56421.06;6127248;23;20009;-94
2023/01/13 13:24:38;;;;;;;8.38;1.60;;;;;;;-146.73;100.00;56421.06;6154172;23;20489;-96
2023/01/13 13:27:39;;;;;;;10.95;1.60;;;;;;;-146.73;100.00;56421.06;6128189;23;20057;-92
2023/01/13 13:30:36;;;;;;;11.52;1.50;;;;;;;-146.73;100.00;56421.06;6126145;23;20451;-92
2023/01/13 13:33:40;;;;;;;16.13;1.42;;;;;;;-146.73;100.00;56421.06;6125134;23;20029;-92
2023/01/13 13:36:47;;;;;;;9.38;1.35;;;;;;;-146.73;100.00;56421.06;6102578;23;20087;-93
2023/01/13 13:48:41;;;;;;;13.50;2.72;;;;;;;-146.73;100.00;56421.06;6095440;23;20575;-95
2023/01/13 13:51:45;;;;;;;;;;;;;;;;;;;;;
2023/01/13 13:54:25;;;;;;;17.33;2.72;;;;;;;-146.73;100.00;56421.06;6122214;23;20012;-92
2023/01/13 13:56:56;;;;;;;10.68;1.80;;;;;;;-146.73;100.00;56421.06;6097184;23;20034;-95
2023/01/13 13:59:46;;;;;;;10.85;1.50;;;;;;;-146.73;100.00;56421.06;6098382;23;20029;-92
2023/01/13 14:02:23;;;;;;;13.18;1.88;;;;;;;-146.73;100.00;56421.06;6105910;23;20512;-94
2023/01/13 14:05:11;;;;;;;14.82;2.13;;;;;;;-146.73;100.00;56421.06;6098326;23;20013;-94
2023/01/13 14:07:45;;;;;;;10.98;2.28;;;;;;;-146.73;100.00;56421.06;6102196;23;20120;-91
2023/01/13 14:14:19;;;;;;;14.25;2.15;;;;;;;-146.73;100.00;56421.06;6149878;23;20010;-94
2023/01/13 14:17:19;;;;;;;17.67;2.17;;;;;;;-146.73;100.00;56421.06;6129173;23;20049;-95
2023/01/13 14:23:36;;;;;;;14.05;2.38;;;;;;;-146.73;100.00;56421.06;6161194;23;20073;-94
2023/01/13 14:26:13;;;;;;;11.73;1.67;;;;;;;-146.73;100.00;56421.06;6167371;23;20006;-92
2023/01/13 14:28:44;;;;;;;13.90;2.25;;;;;;;-146.73;100.00;56421.06;6153830;23;20013;-94
2023/01/13 14:31:28;;;;;;;16.55;2.22;;;;;;;-146.73;100.00;56421.06;6153607;23;20069;-95
2023/01/13 14:34:03;;;;;;;15.13;1.92;;;;;;;-146.73;100.00;56421.06;6152520;23;20060;-94
2023/01/13 14:41:05;;;;;;;19.67;2.88;;;;;;;-146.73;100.00;56421.06;6157691;23;20028;-93
2023/01/13 14:43:31;;;;;;;13.38;2.13;;;;;;;-146.73;100.00;56421.06;6152948;23;20447;-93
2023/01/13 14:46:00;;;;;;;18.95;2.33;;;;;;;-146.73;100.00;56421.06;6155014;23;20005;-93
2023/01/13 14:49:03;;;;;;;13.90;2.03;;;;;;;-146.73;100.00;56421.06;6157330;23;20746;-93
2023/01/13 14:51:45;;;;;;;;;;;;;;;;;;;;;
2023/01/13 14:57:38;;;;;;;11.85;2.13;;;;;;;-146.73;100.00;56421.06;6184283;23;20063;-93
2023/01/13 15:01:15;;;;;;;;;;;;;;;;;;;;;
2023/01/13 15:03:49;;;;;;;12.10;2.20;;;;;;;-146.73;100.00;56421.06;6178273;23;20020;-94
2023/01/13 15:06:29;;;;;;;16.15;2.15;;;;;;;-146.73;100.00;56421.06;6157272;23;20439;-94
2023/01/13 15:08:55;;;;;;;26.45;2.70;;;;;;;-146.73;100.00;56421.06;6181814;23;20028;-94
2023/01/13 15:11:39;;;;;;;10.60;2.03;;;;;;;-146.73;100.00;56421.06;6157608;23;20013;-94
2023/01/13 15:14:59;;;;;;;19.77;2.15;;;;;;;-146.73;100.00;56421.06;6184968;23;20025;-92
2023/01/13 15:17:33;;;;;;;16.77;2.75;;;;;;;-146.73;100.00;56421.06;6186059;23;20091;-92
2023/01/13 15:20:49;;;;;;;19.45;2.40;;;;;;;-146.73;100.00;56421.06;6160920;23;20001;-94
2023/01/13 15:23:49;;;;;;;18.73;2.65;;;;;;;-146.73;100.00;56421.06;6155665;23;20009;-95
2023/01/13 15:26:59;;;;;;;16.70;2.15;;;;;;;-146.73;100.00;56421.06;6188277;23;20016;-94
2023/01/13 15:29:28;;;;;;;15.25;2.28;;;;;;;-146.73;100.00;56421.06;6187317;23;20008;-93
2023/01/13 15:31:56;;;;;;;21.75;3.10;;;;;;;-146.73;100.00;56421.06;6163060;23;20021;-94
2023/01/13 15:34:37;;;;;;;15.77;2.42;;;;;;;-146.73;100.00;56421.06;6162894;23;20027;-94
2023/01/13 15:37:35;;;;;;;14.55;2.13;;;;;;;-146.73;100.00;56421.06;6164040;23;20008;-95
2023/01/13 15:40:02;;;;;;;15.18;2.22;;;;;;;-146.73;100.00;56421.06;6188536;23;20017;-95
2023/01/13 15:51:48;;;;;;;10.93;2.03;;;;;;;-146.73;100.00;56421.06;6177874;23;20595;-94
2023/01/13 15:54:14;;;;;;;14.18;1.45;;;;;;;-146.73;100.00;56421.06;6125136;23;20021;-91
2023/01/13 15:56:45;;;;;;;15.95;2.30;;;;;;;-146.73;100.00;56421.06;6126474;23;20013;-95
2023/01/13 15:59:17;;;;;;;10.15;1.77;;;;;;;-146.73;100.00;56421.06;6128780;23;19998;-93
2023/01/13 16:01:45;;;;;;;13.50;2.83;;;;;;;-146.73;100.00;56421.06;6128860;23;19998;-93